sensor_id;sensor_type;location;lat;lon;timestamp;P1;durP1;ratioP1;P2;durP2;ratioP2
72301;SDS011;60235;52.234;5.186;2022-09-09T00:04:32;6.05;;;1.33;;
72301;SDS011;60235;52.234;5.186;2022-09-09T00:07:13;5.45;;;1.48;;
72301;SDS011;60235;52.234;5.186;2022-09-09T00:12:11;4.60;;;1.40;;
72301;SDS011;60235;52.234;5.186;2022-09-09T00:14:49;5.15;;;1.60;;
72301;SDS011;60235;52.234;5.186;2022-09-09T00:19:50;6.55;;;1.63;;
72301;SDS011;60235;52.234;5.186;2022-09-09T00:22:20;4.60;;;1.42;;
72301;SDS011;60235;52.234;5.186;2022-09-09T00:24:49;7.40;;;2.10;;
72301;SDS011;60235;52.234;5.186;2022-09-09T00:32:27;7.18;;;1.90;;
72301;SDS011;60235;52.234;5.186;2022-09-09T00:34:56;5.88;;;1.88;;
72301;SDS011;60235;52.234;5.186;2022-09-09T00:37:23;7.93;;;1.60;;
72301;SDS011;60235;52.234;5.186;2022-09-09T00:39:53;7.13;;;1.75;;
72301;SDS011;60235;52.234;5.186;2022-09-09T00:57:48;7.95;;;1.90;;
72301;SDS011;60235;52.234;5.186;2022-09-09T01:07:56;7.57;;;2.53;;
72301;SDS011;60235;52.234;5.186;2022-09-09T01:13:08;6.47;;;2.45;;
72301;SDS011;60235;52.234;5.186;2022-09-09T01:15:38;8.43;;;2.80;;
72301;SDS011;60235;52.234;5.186;2022-09-09T01:18:08;8.82;;;2.40;;
72301;SDS011;60235;52.234;5.186;2022-09-09T01:20:38;9.50;;;2.63;;
72301;SDS011;60235;52.234;5.186;2022-09-09T01:23:15;7.72;;;2.40;;
72301;SDS011;60235;52.234;5.186;2022-09-09T01:28:30;6.93;;;2.60;;
72301;SDS011;60235;52.234;5.186;2022-09-09T01:30:57;8.85;;;2.72;;
72301;SDS011;60235;52.234;5.186;2022-09-09T01:33:24;7.65;;;2.72;;
72301;SDS011;60235;52.234;5.186;2022-09-09T01:38:34;7.38;;;2.33;;
72301;SDS011;60235;52.234;5.186;2022-09-09T01:41:01;10.27;;;2.92;;
72301;SDS011;60235;52.234;5.186;2022-09-09T01:43:27;8.93;;;2.60;;
72301;SDS011;60235;52.234;5.186;2022-09-09T01:45:54;7.88;;;2.90;;
72301;SDS011;60235;52.234;5.186;2022-09-09T01:48:21;9.63;;;3.00;;
72301;SDS011;60235;52.234;5.186;2022-09-09T01:50:48;9.32;;;3.33;;
72301;SDS011;60235;52.234;5.186;2022-09-09T01:53:14;8.30;;;3.00;;
72301;SDS011;60235;52.234;5.186;2022-09-09T01:55:42;8.18;;;2.90;;
72301;SDS011;60235;52.234;5.186;2022-09-09T02:00:39;9.40;;;3.08;;
72301;SDS011;60235;52.234;5.186;2022-09-09T02:03:16;8.82;;;2.70;;
72301;SDS011;60235;52.234;5.186;2022-09-09T02:05:49;7.28;;;2.63;;
72301;SDS011;60235;52.234;5.186;2022-09-09T02:08:23;8.65;;;3.17;;
72301;SDS011;60235;52.234;5.186;2022-09-09T02:10:52;9.50;;;3.38;;
72301;SDS011;60235;52.234;5.186;2022-09-09T02:13:20;9.77;;;3.10;;
72301;SDS011;60235;52.234;5.186;2022-09-09T02:15:51;8.82;;;3.30;;
72301;SDS011;60235;52.234;5.186;2022-09-09T02:18:22;9.13;;;3.80;;
72301;SDS011;60235;52.234;5.186;2022-09-09T02:20:51;10.55;;;3.78;;
72301;SDS011;60235;52.234;5.186;2022-09-09T02:23:19;9.10;;;3.22;;
72301;SDS011;60235;52.234;5.186;2022-09-09T02:25:45;9.80;;;3.45;;
72301;SDS011;60235;52.234;5.186;2022-09-09T02:28:11;10.52;;;3.65;;
72301;SDS011;60235;52.234;5.186;2022-09-09T02:30:39;10.48;;;3.67;;
72301;SDS011;60235;52.234;5.186;2022-09-09T02:33:06;11.40;;;3.78;;
72301;SDS011;60235;52.234;5.186;2022-09-09T02:35:35;9.02;;;3.88;;
72301;SDS011;60235;52.234;5.186;2022-09-09T02:38:04;10.18;;;4.05;;
72301;SDS011;60235;52.234;5.186;2022-09-09T02:40:30;9.07;;;3.72;;
72301;SDS011;60235;52.234;5.186;2022-09-09T02:42:57;10.02;;;4.28;;
72301;SDS011;60235;52.234;5.186;2022-09-09T02:45:25;9.90;;;4.47;;
72301;SDS011;60235;52.234;5.186;2022-09-09T02:50:33;9.32;;;4.32;;
72301;SDS011;60235;52.234;5.186;2022-09-09T02:53:02;9.98;;;4.10;;
72301;SDS011;60235;52.234;5.186;2022-09-09T02:55:39;9.50;;;3.72;;
72301;SDS011;60235;52.234;5.186;2022-09-09T02:58:08;8.27;;;3.70;;
72301;SDS011;60235;52.234;5.186;2022-09-09T03:00:36;8.95;;;3.80;;
72301;SDS011;60235;52.234;5.186;2022-09-09T03:03:04;13.15;;;3.95;;
72301;SDS011;60235;52.234;5.186;2022-09-09T03:05:30;9.52;;;3.78;;
72301;SDS011;60235;52.234;5.186;2022-09-09T03:07:57;8.38;;;3.63;;
72301;SDS011;60235;52.234;5.186;2022-09-09T03:10:23;9.00;;;3.85;;
72301;SDS011;60235;52.234;5.186;2022-09-09T03:12:49;9.05;;;3.28;;
72301;SDS011;60235;52.234;5.186;2022-09-09T03:15:15;9.32;;;3.92;;
72301;SDS011;60235;52.234;5.186;2022-09-09T03:17:41;9.48;;;3.67;;
72301;SDS011;60235;52.234;5.186;2022-09-09T03:20:08;12.80;;;3.65;;
72301;SDS011;60235;52.234;5.186;2022-09-09T03:22:34;8.82;;;3.72;;
72301;SDS011;60235;52.234;5.186;2022-09-09T03:25:00;11.15;;;4.38;;
72301;SDS011;60235;52.234;5.186;2022-09-09T03:27:28;8.60;;;3.30;;
72301;SDS011;60235;52.234;5.186;2022-09-09T03:29:54;9.35;;;3.60;;
72301;SDS011;60235;52.234;5.186;2022-09-09T03:32:21;9.35;;;3.15;;
72301;SDS011;60235;52.234;5.186;2022-09-09T03:34:52;9.18;;;3.78;;
72301;SDS011;60235;52.234;5.186;2022-09-09T03:37:18;8.20;;;3.58;;
72301;SDS011;60235;52.234;5.186;2022-09-09T03:39:44;7.78;;;3.15;;
72301;SDS011;60235;52.234;5.186;2022-09-09T03:42:14;10.30;;;3.50;;
72301;SDS011;60235;52.234;5.186;2022-09-09T03:44:43;8.02;;;3.20;;
72301;SDS011;60235;52.234;5.186;2022-09-09T03:47:12;8.48;;;3.78;;
72301;SDS011;60235;52.234;5.186;2022-09-09T03:49:38;8.68;;;3.60;;
72301;SDS011;60235;52.234;5.186;2022-09-09T03:52:04;9.90;;;3.88;;
72301;SDS011;60235;52.234;5.186;2022-09-09T03:54:30;11.20;;;3.72;;
72301;SDS011;60235;52.234;5.186;2022-09-09T03:56:56;10.95;;;3.80;;
72301;SDS011;60235;52.234;5.186;2022-09-09T03:59:23;8.57;;;3.65;;
72301;SDS011;60235;52.234;5.186;2022-09-09T04:01:49;10.35;;;3.60;;
72301;SDS011;60235;52.234;5.186;2022-09-09T04:04:15;12.15;;;4.07;;
72301;SDS011;60235;52.234;5.186;2022-09-09T04:06:41;10.65;;;3.90;;
72301;SDS011;60235;52.234;5.186;2022-09-09T04:09:07;10.40;;;3.72;;
72301;SDS011;60235;52.234;5.186;2022-09-09T04:11:33;9.18;;;3.53;;
72301;SDS011;60235;52.234;5.186;2022-09-09T04:13:59;10.90;;;3.63;;
72301;SDS011;60235;52.234;5.186;2022-09-09T04:16:25;9.85;;;3.50;;
72301;SDS011;60235;52.234;5.186;2022-09-09T04:18:51;9.43;;;3.63;;
72301;SDS011;60235;52.234;5.186;2022-09-09T04:21:18;9.80;;;3.65;;
72301;SDS011;60235;52.234;5.186;2022-09-09T04:23:44;7.82;;;3.50;;
72301;SDS011;60235;52.234;5.186;2022-09-09T04:26:10;12.55;;;4.38;;
72301;SDS011;60235;52.234;5.186;2022-09-09T04:28:36;13.10;;;3.80;;
72301;SDS011;60235;52.234;5.186;2022-09-09T04:31:06;7.93;;;3.47;;
72301;SDS011;60235;52.234;5.186;2022-09-09T04:33:34;10.73;;;3.83;;
72301;SDS011;60235;52.234;5.186;2022-09-09T04:36:00;12.18;;;3.55;;
72301;SDS011;60235;52.234;5.186;2022-09-09T04:38:26;10.02;;;3.80;;
72301;SDS011;60235;52.234;5.186;2022-09-09T04:40:52;10.70;;;3.63;;
72301;SDS011;60235;52.234;5.186;2022-09-09T04:43:19;12.48;;;3.70;;
72301;SDS011;60235;52.234;5.186;2022-09-09T04:45:49;12.50;;;3.67;;
72301;SDS011;60235;52.234;5.186;2022-09-09T04:48:16;8.85;;;3.30;;
72301;SDS011;60235;52.234;5.186;2022-09-09T04:50:42;11.27;;;3.45;;
72301;SDS011;60235;52.234;5.186;2022-09-09T04:53:08;9.73;;;4.45;;
72301;SDS011;60235;52.234;5.186;2022-09-09T04:55:34;8.13;;;3.03;;
72301;SDS011;60235;52.234;5.186;2022-09-09T04:58:04;9.30;;;3.95;;
72301;SDS011;60235;52.234;5.186;2022-09-09T05:00:30;13.20;;;3.70;;
72301;SDS011;60235;52.234;5.186;2022-09-09T05:02:56;9.68;;;3.20;;
72301;SDS011;60235;52.234;5.186;2022-09-09T05:05:22;10.27;;;3.25;;
72301;SDS011;60235;52.234;5.186;2022-09-09T05:07:48;8.38;;;3.38;;
72301;SDS011;60235;52.234;5.186;2022-09-09T05:10:14;9.60;;;3.63;;
72301;SDS011;60235;52.234;5.186;2022-09-09T05:12:42;12.07;;;3.92;;
72301;SDS011;60235;52.234;5.186;2022-09-09T05:15:09;8.52;;;3.30;;
72301;SDS011;60235;52.234;5.186;2022-09-09T05:17:35;8.27;;;3.83;;
72301;SDS011;60235;52.234;5.186;2022-09-09T05:20:01;8.07;;;3.05;;
72301;SDS011;60235;52.234;5.186;2022-09-09T05:22:28;11.68;;;3.50;;
72301;SDS011;60235;52.234;5.186;2022-09-09T05:24:55;13.10;;;2.95;;
72301;SDS011;60235;52.234;5.186;2022-09-09T05:27:21;11.20;;;3.10;;
72301;SDS011;60235;52.234;5.186;2022-09-09T05:29:47;13.25;;;3.10;;
72301;SDS011;60235;52.234;5.186;2022-09-09T05:32:13;11.93;;;3.40;;
72301;SDS011;60235;52.234;5.186;2022-09-09T05:34:41;11.18;;;3.15;;
72301;SDS011;60235;52.234;5.186;2022-09-09T05:37:07;10.18;;;3.50;;
72301;SDS011;60235;52.234;5.186;2022-09-09T05:39:33;10.13;;;3.45;;
72301;SDS011;60235;52.234;5.186;2022-09-09T05:42:01;9.63;;;3.58;;
72301;SDS011;60235;52.234;5.186;2022-09-09T05:44:29;9.10;;;2.92;;
72301;SDS011;60235;52.234;5.186;2022-09-09T05:46:54;11.93;;;3.15;;
72301;SDS011;60235;52.234;5.186;2022-09-09T05:49:21;11.50;;;2.80;;
72301;SDS011;60235;52.234;5.186;2022-09-09T05:51:47;8.23;;;2.90;;
72301;SDS011;60235;52.234;5.186;2022-09-09T05:54:13;10.70;;;3.47;;
72301;SDS011;60235;52.234;5.186;2022-09-09T05:56:40;16.10;;;3.28;;
72301;SDS011;60235;52.234;5.186;2022-09-09T05:59:06;8.20;;;2.95;;
72301;SDS011;60235;52.234;5.186;2022-09-09T06:01:33;12.77;;;3.42;;
72301;SDS011;60235;52.234;5.186;2022-09-09T06:03:59;7.97;;;3.13;;
72301;SDS011;60235;52.234;5.186;2022-09-09T06:06:27;10.57;;;3.22;;
72301;SDS011;60235;52.234;5.186;2022-09-09T06:08:54;9.93;;;3.38;;
72301;SDS011;60235;52.234;5.186;2022-09-09T06:11:23;9.65;;;3.10;;
72301;SDS011;60235;52.234;5.186;2022-09-09T06:13:50;7.93;;;3.15;;
72301;SDS011;60235;52.234;5.186;2022-09-09T06:16:19;11.27;;;2.78;;
72301;SDS011;60235;52.234;5.186;2022-09-09T06:18:45;9.80;;;2.92;;
72301;SDS011;60235;52.234;5.186;2022-09-09T06:21:17;13.07;;;2.60;;
72301;SDS011;60235;52.234;5.186;2022-09-09T06:23:43;10.43;;;2.55;;
72301;SDS011;60235;52.234;5.186;2022-09-09T06:26:16;8.93;;;3.35;;
72301;SDS011;60235;52.234;5.186;2022-09-09T06:28:43;10.40;;;2.65;;
72301;SDS011;60235;52.234;5.186;2022-09-09T06:31:11;11.45;;;2.58;;
72301;SDS011;60235;52.234;5.186;2022-09-09T06:33:38;7.18;;;2.53;;
72301;SDS011;60235;52.234;5.186;2022-09-09T06:36:06;9.30;;;2.58;;
72301;SDS011;60235;52.234;5.186;2022-09-09T06:38:32;11.30;;;2.60;;
72301;SDS011;60235;52.234;5.186;2022-09-09T06:40:59;9.27;;;2.70;;
72301;SDS011;60235;52.234;5.186;2022-09-09T06:43:25;11.18;;;2.80;;
72301;SDS011;60235;52.234;5.186;2022-09-09T06:45:55;13.52;;;3.13;;
72301;SDS011;60235;52.234;5.186;2022-09-09T06:48:21;7.38;;;2.58;;
72301;SDS011;60235;52.234;5.186;2022-09-09T06:50:47;12.38;;;2.63;;
72301;SDS011;60235;52.234;5.186;2022-09-09T06:53:17;10.98;;;2.78;;
72301;SDS011;60235;52.234;5.186;2022-09-09T06:55:46;8.60;;;2.47;;
72301;SDS011;60235;52.234;5.186;2022-09-09T06:58:13;11.88;;;2.50;;
72301;SDS011;60235;52.234;5.186;2022-09-09T07:00:39;11.95;;;2.58;;
72301;SDS011;60235;52.234;5.186;2022-09-09T07:03:05;12.93;;;2.47;;
72301;SDS011;60235;52.234;5.186;2022-09-09T07:05:31;6.93;;;2.00;;
72301;SDS011;60235;52.234;5.186;2022-09-09T07:07:57;11.40;;;2.42;;
72301;SDS011;60235;52.234;5.186;2022-09-09T07:10:23;13.48;;;2.85;;
72301;SDS011;60235;52.234;5.186;2022-09-09T07:12:50;11.25;;;2.55;;
72301;SDS011;60235;52.234;5.186;2022-09-09T07:15:17;9.63;;;2.30;;
72301;SDS011;60235;52.234;5.186;2022-09-09T07:17:43;13.35;;;2.78;;
72301;SDS011;60235;52.234;5.186;2022-09-09T07:20:10;13.00;;;2.38;;
72301;SDS011;60235;52.234;5.186;2022-09-09T07:22:36;10.18;;;2.22;;
72301;SDS011;60235;52.234;5.186;2022-09-09T07:25:03;10.68;;;2.30;;
72301;SDS011;60235;52.234;5.186;2022-09-09T07:27:29;6.78;;;2.40;;
72301;SDS011;60235;52.234;5.186;2022-09-09T07:29:55;10.13;;;2.40;;
72301;SDS011;60235;52.234;5.186;2022-09-09T07:32:22;7.47;;;2.38;;
72301;SDS011;60235;52.234;5.186;2022-09-09T07:34:48;9.50;;;2.95;;
72301;SDS011;60235;52.234;5.186;2022-09-09T07:37:15;12.00;;;2.72;;
72301;SDS011;60235;52.234;5.186;2022-09-09T07:39:42;13.88;;;2.28;;
72301;SDS011;60235;52.234;5.186;2022-09-09T07:42:08;8.07;;;2.28;;
72301;SDS011;60235;52.234;5.186;2022-09-09T07:44:36;12.00;;;2.40;;
72301;SDS011;60235;52.234;5.186;2022-09-09T07:47:04;10.90;;;3.13;;
72301;SDS011;60235;52.234;5.186;2022-09-09T07:49:30;10.88;;;2.67;;
72301;SDS011;60235;52.234;5.186;2022-09-09T07:51:57;13.27;;;2.75;;
72301;SDS011;60235;52.234;5.186;2022-09-09T07:54:23;10.82;;;2.88;;
72301;SDS011;60235;52.234;5.186;2022-09-09T07:56:51;10.85;;;2.78;;
72301;SDS011;60235;52.234;5.186;2022-09-09T07:59:17;10.13;;;2.40;;
72301;SDS011;60235;52.234;5.186;2022-09-09T08:01:44;12.15;;;2.97;;
72301;SDS011;60235;52.234;5.186;2022-09-09T08:04:12;9.93;;;2.63;;
72301;SDS011;60235;52.234;5.186;2022-09-09T08:06:42;10.95;;;3.00;;
72301;SDS011;60235;52.234;5.186;2022-09-09T08:09:09;9.55;;;2.55;;
72301;SDS011;60235;52.234;5.186;2022-09-09T08:11:35;12.98;;;2.70;;
72301;SDS011;60235;52.234;5.186;2022-09-09T08:14:02;11.20;;;2.80;;
72301;SDS011;60235;52.234;5.186;2022-09-09T08:16:29;10.02;;;2.75;;
72301;SDS011;60235;52.234;5.186;2022-09-09T08:18:55;11.43;;;2.53;;
72301;SDS011;60235;52.234;5.186;2022-09-09T08:21:31;8.27;;;2.83;;
72301;SDS011;60235;52.234;5.186;2022-09-09T08:23:59;10.82;;;2.50;;
72301;SDS011;60235;52.234;5.186;2022-09-09T08:26:29;12.45;;;2.70;;
72301;SDS011;60235;52.234;5.186;2022-09-09T08:28:56;12.95;;;3.15;;
72301;SDS011;60235;52.234;5.186;2022-09-09T08:33:48;7.47;;;2.10;;
72301;SDS011;60235;52.234;5.186;2022-09-09T08:36:15;10.70;;;2.50;;
72301;SDS011;60235;52.234;5.186;2022-09-09T08:38:42;16.40;;;2.78;;
72301;SDS011;60235;52.234;5.186;2022-09-09T08:43:40;8.68;;;2.38;;
72301;SDS011;60235;52.234;5.186;2022-09-09T08:46:09;7.50;;;2.13;;
72301;SDS011;60235;52.234;5.186;2022-09-09T08:48:56;11.98;;;2.55;;
72301;SDS011;60235;52.234;5.186;2022-09-09T08:51:25;11.32;;;2.10;;
72301;SDS011;60235;52.234;5.186;2022-09-09T08:53:52;16.10;;;2.60;;
72301;SDS011;60235;52.234;5.186;2022-09-09T08:56:21;9.70;;;2.08;;
72301;SDS011;60235;52.234;5.186;2022-09-09T08:58:51;11.50;;;2.40;;
72301;SDS011;60235;52.234;5.186;2022-09-09T09:04:01;12.25;;;2.45;;
72301;SDS011;60235;52.234;5.186;2022-09-09T09:09:02;11.45;;;2.13;;
72301;SDS011;60235;52.234;5.186;2022-09-09T09:11:38;10.98;;;2.15;;
72301;SDS011;60235;52.234;5.186;2022-09-09T09:17:02;11.55;;;2.40;;
72301;SDS011;60235;52.234;5.186;2022-09-09T09:19:29;9.38;;;2.35;;
72301;SDS011;60235;52.234;5.186;2022-09-09T09:22:02;7.97;;;2.08;;
72301;SDS011;60235;52.234;5.186;2022-09-09T09:27:15;13.73;;;2.47;;
72301;SDS011;60235;52.234;5.186;2022-09-09T09:29:41;12.27;;;2.60;;
72301;SDS011;60235;52.234;5.186;2022-09-09T09:32:09;9.68;;;2.50;;
72301;SDS011;60235;52.234;5.186;2022-09-09T09:34:37;10.20;;;1.90;;
72301;SDS011;60235;52.234;5.186;2022-09-09T09:37:07;10.23;;;2.08;;
72301;SDS011;60235;52.234;5.186;2022-09-09T09:39:38;10.70;;;2.28;;
72301;SDS011;60235;52.234;5.186;2022-09-09T09:42:15;9.52;;;2.85;;
72301;SDS011;60235;52.234;5.186;2022-09-09T09:44:42;12.90;;;2.53;;
72301;SDS011;60235;52.234;5.186;2022-09-09T09:47:12;10.07;;;2.20;;
72301;SDS011;60235;52.234;5.186;2022-09-09T09:49:38;14.98;;;2.53;;
72301;SDS011;60235;52.234;5.186;2022-09-09T09:52:05;12.20;;;2.08;;
72301;SDS011;60235;52.234;5.186;2022-09-09T09:54:39;10.57;;;2.33;;
72301;SDS011;60235;52.234;5.186;2022-09-09T09:57:08;13.35;;;2.30;;
72301;SDS011;60235;52.234;5.186;2022-09-09T09:59:35;10.07;;;1.80;;
72301;SDS011;60235;52.234;5.186;2022-09-09T10:02:17;14.57;;;3.25;;
72301;SDS011;60235;52.234;5.186;2022-09-09T10:04:44;8.68;;;2.17;;
72301;SDS011;60235;52.234;5.186;2022-09-09T10:07:11;7.28;;;2.03;;
72301;SDS011;60235;52.234;5.186;2022-09-09T10:09:37;10.75;;;2.20;;
72301;SDS011;60235;52.234;5.186;2022-09-09T10:12:14;9.07;;;2.20;;
72301;SDS011;60235;52.234;5.186;2022-09-09T10:15:04;7.00;;;1.98;;
72301;SDS011;60235;52.234;5.186;2022-09-09T10:20:11;10.85;;;2.30;;
72301;SDS011;60235;52.234;5.186;2022-09-09T10:22:52;10.70;;;2.40;;
72301;SDS011;60235;52.234;5.186;2022-09-09T10:28:02;8.68;;;1.98;;
72301;SDS011;60235;52.234;5.186;2022-09-09T10:33:09;7.80;;;2.13;;
72301;SDS011;60235;52.234;5.186;2022-09-09T10:35:41;10.05;;;2.58;;
72301;SDS011;60235;52.234;5.186;2022-09-09T10:38:16;9.63;;;2.15;;
72301;SDS011;60235;52.234;5.186;2022-09-09T10:50:46;10.63;;;2.35;;
72301;SDS011;60235;52.234;5.186;2022-09-09T10:53:20;9.90;;;2.30;;
72301;SDS011;60235;52.234;5.186;2022-09-09T10:55:51;10.00;;;2.85;;
72301;SDS011;60235;52.234;5.186;2022-09-09T10:58:20;9.55;;;2.47;;
72301;SDS011;60235;52.234;5.186;2022-09-09T11:00:56;9.23;;;2.58;;
72301;SDS011;60235;52.234;5.186;2022-09-09T11:03:27;8.25;;;2.25;;
72301;SDS011;60235;52.234;5.186;2022-09-09T11:06:01;9.95;;;2.47;;
72301;SDS011;60235;52.234;5.186;2022-09-09T11:08:30;14.52;;;2.35;;
72301;SDS011;60235;52.234;5.186;2022-09-09T11:10:59;8.80;;;2.55;;
72301;SDS011;60235;52.234;5.186;2022-09-09T11:13:45;7.28;;;2.33;;
72301;SDS011;60235;52.234;5.186;2022-09-09T11:16:22;7.88;;;1.92;;
72301;SDS011;60235;52.234;5.186;2022-09-09T11:18:50;8.18;;;2.15;;
72301;SDS011;60235;52.234;5.186;2022-09-09T11:21:26;8.35;;;2.50;;
72301;SDS011;60235;52.234;5.186;2022-09-09T11:23:56;10.68;;;2.10;;
72301;SDS011;60235;52.234;5.186;2022-09-09T11:26:35;10.35;;;2.42;;
72301;SDS011;60235;52.234;5.186;2022-09-09T11:29:21;9.48;;;2.35;;
72301;SDS011;60235;52.234;5.186;2022-09-09T11:37:04;9.25;;;2.33;;
72301;SDS011;60235;52.234;5.186;2022-09-09T11:44:38;9.52;;;2.38;;
72301;SDS011;60235;52.234;5.186;2022-09-09T11:47:15;13.82;;;2.42;;
72301;SDS011;60235;52.234;5.186;2022-09-09T11:49:42;10.82;;;2.33;;
72301;SDS011;60235;52.234;5.186;2022-09-09T11:54:54;8.52;;;2.33;;
72301;SDS011;60235;52.234;5.186;2022-09-09T11:57:25;10.90;;;2.22;;
72301;SDS011;60235;52.234;5.186;2022-09-09T11:59:53;11.18;;;2.35;;
72301;SDS011;60235;52.234;5.186;2022-09-09T12:02:24;9.10;;;1.98;;
72301;SDS011;60235;52.234;5.186;2022-09-09T12:07:23;8.40;;;2.20;;
72301;SDS011;60235;52.234;5.186;2022-09-09T12:12:26;7.50;;;2.10;;
72301;SDS011;60235;52.234;5.186;2022-09-09T12:17:23;6.85;;;2.05;;
72301;SDS011;60235;52.234;5.186;2022-09-09T12:20:35;7.35;;;1.90;;
72301;SDS011;60235;52.234;5.186;2022-09-09T12:28:15;6.30;;;1.83;;
72301;SDS011;60235;52.234;5.186;2022-09-09T12:35:41;9.13;;;2.22;;
72301;SDS011;60235;52.234;5.186;2022-09-09T12:38:09;8.63;;;2.22;;
72301;SDS011;60235;52.234;5.186;2022-09-09T12:40:38;7.72;;;2.13;;
72301;SDS011;60235;52.234;5.186;2022-09-09T12:43:20;6.82;;;2.17;;
72301;SDS011;60235;52.234;5.186;2022-09-09T12:45:47;9.32;;;2.25;;
72301;SDS011;60235;52.234;5.186;2022-09-09T12:48:15;8.18;;;2.35;;
72301;SDS011;60235;52.234;5.186;2022-09-09T12:50:43;8.60;;;2.30;;
72301;SDS011;60235;52.234;5.186;2022-09-09T12:53:12;7.95;;;2.35;;
72301;SDS011;60235;52.234;5.186;2022-09-09T12:55:48;10.95;;;2.40;;
72301;SDS011;60235;52.234;5.186;2022-09-09T12:58:14;11.65;;;2.78;;
72301;SDS011;60235;52.234;5.186;2022-09-09T13:00:48;11.30;;;2.35;;
72301;SDS011;60235;52.234;5.186;2022-09-09T13:03:17;9.57;;;2.50;;
72301;SDS011;60235;52.234;5.186;2022-09-09T13:05:45;6.43;;;2.25;;
72301;SDS011;60235;52.234;5.186;2022-09-09T13:08:12;12.10;;;2.80;;
72301;SDS011;60235;52.234;5.186;2022-09-09T13:13:17;7.18;;;2.28;;
72301;SDS011;60235;52.234;5.186;2022-09-09T13:15:48;6.13;;;2.03;;
72301;SDS011;60235;52.234;5.186;2022-09-09T13:18:15;9.20;;;2.90;;
72301;SDS011;60235;52.234;5.186;2022-09-09T13:20:45;10.07;;;2.40;;
72301;SDS011;60235;52.234;5.186;2022-09-09T13:23:12;9.20;;;2.92;;
72301;SDS011;60235;52.234;5.186;2022-09-09T13:25:38;9.00;;;2.55;;
72301;SDS011;60235;52.234;5.186;2022-09-09T13:28:04;8.05;;;2.55;;
72301;SDS011;60235;52.234;5.186;2022-09-09T13:30:32;8.98;;;2.80;;
72301;SDS011;60235;52.234;5.186;2022-09-09T13:35:27;8.60;;;3.00;;
72301;SDS011;60235;52.234;5.186;2022-09-09T13:37:53;8.82;;;3.10;;
72301;SDS011;60235;52.234;5.186;2022-09-09T13:40:21;6.15;;;2.40;;
72301;SDS011;60235;52.234;5.186;2022-09-09T13:42:47;8.02;;;2.90;;
72301;SDS011;60235;52.234;5.186;2022-09-09T13:45:17;7.82;;;2.40;;
72301;SDS011;60235;52.234;5.186;2022-09-09T13:47:47;8.55;;;2.70;;
72301;SDS011;60235;52.234;5.186;2022-09-09T13:50:21;6.97;;;2.67;;
72301;SDS011;60235;52.234;5.186;2022-09-09T13:52:47;7.70;;;2.92;;
72301;SDS011;60235;52.234;5.186;2022-09-09T13:55:16;7.68;;;2.80;;
72301;SDS011;60235;52.234;5.186;2022-09-09T13:57:55;10.93;;;2.58;;
72301;SDS011;60235;52.234;5.186;2022-09-09T14:00:21;9.65;;;2.40;;
72301;SDS011;60235;52.234;5.186;2022-09-09T14:02:49;8.88;;;2.53;;
72301;SDS011;60235;52.234;5.186;2022-09-09T14:05:15;13.30;;;2.28;;
72301;SDS011;60235;52.234;5.186;2022-09-09T14:07:41;8.68;;;2.05;;
72301;SDS011;60235;52.234;5.186;2022-09-09T14:10:08;6.68;;;2.40;;
72301;SDS011;60235;52.234;5.186;2022-09-09T14:12:34;8.73;;;2.65;;
72301;SDS011;60235;52.234;5.186;2022-09-09T14:15:01;11.00;;;2.30;;
72301;SDS011;60235;52.234;5.186;2022-09-09T14:17:27;7.68;;;2.53;;
72301;SDS011;60235;52.234;5.186;2022-09-09T14:19:55;6.97;;;2.20;;
72301;SDS011;60235;52.234;5.186;2022-09-09T14:22:21;10.13;;;2.70;;
72301;SDS011;60235;52.234;5.186;2022-09-09T14:24:47;9.27;;;2.92;;
72301;SDS011;60235;52.234;5.186;2022-09-09T14:27:14;9.80;;;2.67;;
72301;SDS011;60235;52.234;5.186;2022-09-09T14:29:40;7.97;;;2.60;;
72301;SDS011;60235;52.234;5.186;2022-09-09T14:32:08;9.50;;;3.25;;
72301;SDS011;60235;52.234;5.186;2022-09-09T14:34:34;10.80;;;3.22;;
72301;SDS011;60235;52.234;5.186;2022-09-09T14:37:00;8.30;;;2.95;;
72301;SDS011;60235;52.234;5.186;2022-09-09T14:39:26;7.30;;;2.38;;
72301;SDS011;60235;52.234;5.186;2022-09-09T14:41:53;7.57;;;2.58;;
72301;SDS011;60235;52.234;5.186;2022-09-09T14:44:19;6.75;;;2.42;;
72301;SDS011;60235;52.234;5.186;2022-09-09T14:46:45;7.25;;;2.33;;
72301;SDS011;60235;52.234;5.186;2022-09-09T14:49:11;7.85;;;2.88;;
72301;SDS011;60235;52.234;5.186;2022-09-09T14:51:37;9.55;;;2.88;;
72301;SDS011;60235;52.234;5.186;2022-09-09T14:54:04;9.70;;;2.75;;
72301;SDS011;60235;52.234;5.186;2022-09-09T14:56:31;9.05;;;2.83;;
72301;SDS011;60235;52.234;5.186;2022-09-09T14:58:59;11.57;;;3.10;;
72301;SDS011;60235;52.234;5.186;2022-09-09T15:01:28;7.75;;;2.55;;
72301;SDS011;60235;52.234;5.186;2022-09-09T15:03:55;7.22;;;2.42;;
72301;SDS011;60235;52.234;5.186;2022-09-09T15:06:23;11.73;;;3.03;;
72301;SDS011;60235;52.234;5.186;2022-09-09T15:08:51;8.80;;;2.55;;
72301;SDS011;60235;52.234;5.186;2022-09-09T15:11:17;7.22;;;2.45;;
72301;SDS011;60235;52.234;5.186;2022-09-09T15:13:44;11.90;;;2.53;;
72301;SDS011;60235;52.234;5.186;2022-09-09T15:16:13;9.75;;;2.83;;
72301;SDS011;60235;52.234;5.186;2022-09-09T15:18:40;9.20;;;2.10;;
72301;SDS011;60235;52.234;5.186;2022-09-09T15:21:14;4.75;;;1.20;;
72301;SDS011;60235;52.234;5.186;2022-09-09T15:23:40;6.50;;;1.30;;
72301;SDS011;60235;52.234;5.186;2022-09-09T15:26:06;8.18;;;1.50;;
72301;SDS011;60235;52.234;5.186;2022-09-09T15:28:33;5.70;;;1.70;;
72301;SDS011;60235;52.234;5.186;2022-09-09T15:31:04;5.90;;;1.38;;
72301;SDS011;60235;52.234;5.186;2022-09-09T15:33:31;5.88;;;1.30;;
72301;SDS011;60235;52.234;5.186;2022-09-09T15:35:58;5.90;;;1.63;;
72301;SDS011;60235;52.234;5.186;2022-09-09T15:38:24;6.80;;;1.40;;
72301;SDS011;60235;52.234;5.186;2022-09-09T15:40:53;7.75;;;1.58;;
72301;SDS011;60235;52.234;5.186;2022-09-09T15:43:20;9.88;;;1.70;;
72301;SDS011;60235;52.234;5.186;2022-09-09T15:45:48;6.38;;;2.33;;
72301;SDS011;60235;52.234;5.186;2022-09-09T15:48:18;8.20;;;1.80;;
72301;SDS011;60235;52.234;5.186;2022-09-09T15:50:44;7.18;;;2.08;;
72301;SDS011;60235;52.234;5.186;2022-09-09T15:53:10;8.50;;;2.20;;
72301;SDS011;60235;52.234;5.186;2022-09-09T15:55:36;6.68;;;2.10;;
72301;SDS011;60235;52.234;5.186;2022-09-09T15:58:02;7.75;;;2.20;;
72301;SDS011;60235;52.234;5.186;2022-09-09T16:00:28;9.10;;;2.55;;
72301;SDS011;60235;52.234;5.186;2022-09-09T16:02:54;6.63;;;1.77;;
72301;SDS011;60235;52.234;5.186;2022-09-09T16:05:20;8.55;;;2.00;;
72301;SDS011;60235;52.234;5.186;2022-09-09T16:07:46;9.60;;;1.65;;
72301;SDS011;60235;52.234;5.186;2022-09-09T16:10:12;6.85;;;1.90;;
72301;SDS011;60235;52.234;5.186;2022-09-09T16:12:39;5.03;;;1.60;;
72301;SDS011;60235;52.234;5.186;2022-09-09T16:15:05;6.10;;;1.77;;
72301;SDS011;60235;52.234;5.186;2022-09-09T16:17:32;7.45;;;1.73;;
72301;SDS011;60235;52.234;5.186;2022-09-09T16:20:02;5.45;;;1.55;;
72301;SDS011;60235;52.234;5.186;2022-09-09T16:22:30;5.72;;;1.52;;
72301;SDS011;60235;52.234;5.186;2022-09-09T16:24:56;5.97;;;1.77;;
72301;SDS011;60235;52.234;5.186;2022-09-09T16:27:22;5.43;;;1.35;;
72301;SDS011;60235;52.234;5.186;2022-09-09T16:29:48;5.07;;;1.40;;
72301;SDS011;60235;52.234;5.186;2022-09-09T16:32:14;7.38;;;1.25;;
72301;SDS011;60235;52.234;5.186;2022-09-09T16:34:41;8.15;;;2.08;;
72301;SDS011;60235;52.234;5.186;2022-09-09T16:37:07;7.15;;;1.77;;
72301;SDS011;60235;52.234;5.186;2022-09-09T16:39:33;9.27;;;1.60;;
72301;SDS011;60235;52.234;5.186;2022-09-09T16:41:59;7.18;;;1.60;;
72301;SDS011;60235;52.234;5.186;2022-09-09T16:44:26;6.03;;;1.67;;
72301;SDS011;60235;52.234;5.186;2022-09-09T16:46:52;7.78;;;2.00;;
72301;SDS011;60235;52.234;5.186;2022-09-09T16:49:19;6.93;;;1.55;;